sensor_id;sensor_type;location;lat;lon;timestamp;temperature;humidity
30694;DHT22;17446;48.022;-1.740;2023-02-01T00:01:57;10.40;99.90
30694;DHT22;17446;48.022;-1.740;2023-02-01T00:04:22;10.40;99.90
30694;DHT22;17446;48.022;-1.740;2023-02-01T00:06:48;10.40;99.90
30694;DHT22;17446;48.022;-1.740;2023-02-01T00:09:14;10.50;99.90
30694;DHT22;17446;48.022;-1.740;2023-02-01T00:11:40;10.50;99.90
30694;DHT22;17446;48.022;-1.740;2023-02-01T00:14:06;10.50;99.90
30694;DHT22;17446;48.022;-1.740;2023-02-01T00:16:32;10.50;99.90
30694;DHT22;17446;48.022;-1.740;2023-02-01T00:19:12;10.50;99.90
30694;DHT22;17446;48.022;-1.740;2023-02-01T00:21:38;10.50;99.90
30694;DHT22;17446;48.022;-1.740;2023-02-01T00:24:04;10.50;99.90
30694;DHT22;17446;48.022;-1.740;2023-02-01T00:26:35;10.50;99.90
30694;DHT22;17446;48.022;-1.740;2023-02-01T00:29:03;10.50;99.90
30694;DHT22;17446;48.022;-1.740;2023-02-01T00:31:29;10.50;99.90
30694;DHT22;17446;48.022;-1.740;2023-02-01T00:33:55;10.50;99.90
30694;DHT22;17446;48.022;-1.740;2023-02-01T00:36:20;10.50;99.90
30694;DHT22;17446;48.022;-1.740;2023-02-01T00:38:46;10.50;99.90
30694;DHT22;17446;48.022;-1.740;2023-02-01T00:41:14;10.50;99.90
30694;DHT22;17446;48.022;-1.740;2023-02-01T00:43:41;10.50;99.90
30694;DHT22;17446;48.022;-1.740;2023-02-01T00:46:07;10.50;99.90
30694;DHT22;17446;48.022;-1.740;2023-02-01T00:48:33;10.50;99.90
30694;DHT22;17446;48.022;-1.740;2023-02-01T00:50:59;10.60;99.90
30694;DHT22;17446;48.022;-1.740;2023-02-01T00:53:26;10.50;99.90
30694;DHT22;17446;48.022;-1.740;2023-02-01T00:55:51;10.50;99.90
30694;DHT22;17446;48.022;-1.740;2023-02-01T00:58:17;10.50;99.90
30694;DHT22;17446;48.022;-1.740;2023-02-01T01:00:43;10.50;99.90
30694;DHT22;17446;48.022;-1.740;2023-02-01T01:03:08;10.50;99.90
30694;DHT22;17446;48.022;-1.740;2023-02-01T01:05:45;10.50;99.90
30694;DHT22;17446;48.022;-1.740;2023-02-01T01:08:10;10.50;99.90
30694;DHT22;17446;48.022;-1.740;2023-02-01T01:10:36;10.50;99.90
30694;DHT22;17446;48.022;-1.740;2023-02-01T01:13:01;10.50;99.90
30694;DHT22;17446;48.022;-1.740;2023-02-01T01:15:27;10.50;99.90
30694;DHT22;17446;48.022;-1.740;2023-02-01T01:17:53;10.50;99.90
30694;DHT22;17446;48.022;-1.740;2023-02-01T01:20:18;10.40;99.90
30694;DHT22;17446;48.022;-1.740;2023-02-01T01:22:47;10.40;99.90
30694;DHT22;17446;48.022;-1.740;2023-02-01T01:25:13;10.40;99.90
30694;DHT22;17446;48.022;-1.740;2023-02-01T01:27:39;10.40;99.90
30694;DHT22;17446;48.022;-1.740;2023-02-01T01:30:05;10.30;99.90
30694;DHT22;17446;48.022;-1.740;2023-02-01T01:32:31;10.30;99.90
30694;DHT22;17446;48.022;-1.740;2023-02-01T01:34:57;10.30;99.90
30694;DHT22;17446;48.022;-1.740;2023-02-01T01:37:22;10.20;99.90
30694;DHT22;17446;48.022;-1.740;2023-02-01T01:39:48;10.30;99.90
30694;DHT22;17446;48.022;-1.740;2023-02-01T01:42:13;10.20;99.90
30694;DHT22;17446;48.022;-1.740;2023-02-01T01:47:24;10.30;99.90
30694;DHT22;17446;48.022;-1.740;2023-02-01T01:49:50;10.30;99.90
30694;DHT22;17446;48.022;-1.740;2023-02-01T01:52:16;10.30;99.90
30694;DHT22;17446;48.022;-1.740;2023-02-01T01:54:48;10.30;99.90
30694;DHT22;17446;48.022;-1.740;2023-02-01T01:57:38;10.30;99.90
30694;DHT22;17446;48.022;-1.740;2023-02-01T02:00:10;10.20;99.90
30694;DHT22;17446;48.022;-1.740;2023-02-01T02:02:37;10.20;99.90
30694;DHT22;17446;48.022;-1.740;2023-02-01T02:05:04;10.20;99.90
30694;DHT22;17446;48.022;-1.740;2023-02-01T02:07:34;10.20;99.90
30694;DHT22;17446;48.022;-1.740;2023-02-01T02:10:01;10.30;99.90
30694;DHT22;17446;48.022;-1.740;2023-02-01T02:12:27;10.30;99.90
30694;DHT22;17446;48.022;-1.740;2023-02-01T02:14:53;10.20;99.90
30694;DHT22;17446;48.022;-1.740;2023-02-01T02:20:25;10.20;99.90
30694;DHT22;17446;48.022;-1.740;2023-02-01T02:26:19;10.20;99.90
30694;DHT22;17446;48.022;-1.740;2023-02-01T02:37:18;10.20;99.90
30694;DHT22;17446;48.022;-1.740;2023-02-01T02:45:47;10.20;99.90
30694;DHT22;17446;48.022;-1.740;2023-02-01T02:48:47;10.20;99.90
30694;DHT22;17446;48.022;-1.740;2023-02-01T02:51:27;10.20;99.90
30694;DHT22;17446;48.022;-1.740;2023-02-01T02:54:20;10.20;99.90
30694;DHT22;17446;48.022;-1.740;2023-02-01T02:57:08;10.20;99.90
30694;DHT22;17446;48.022;-1.740;2023-02-01T02:59:53;10.20;99.90
30694;DHT22;17446;48.022;-1.740;2023-02-01T03:02:37;10.20;99.90
30694;DHT22;17446;48.022;-1.740;2023-02-01T03:05:22;10.20;99.90
30694;DHT22;17446;48.022;-1.740;2023-02-01T03:12:41;10.20;99.90
30694;DHT22;17446;48.022;-1.740;2023-02-01T03:15:24;10.30;99.90
30694;DHT22;17446;48.022;-1.740;2023-02-01T03:17:53;10.30;99.90
30694;DHT22;17446;48.022;-1.740;2023-02-01T03:20:22;10.30;99.90
30694;DHT22;17446;48.022;-1.740;2023-02-01T03:22:51;10.30;99.90
30694;DHT22;17446;48.022;-1.740;2023-02-01T03:25:22;10.30;99.90
30694;DHT22;17446;48.022;-1.740;2023-02-01T03:28:06;10.30;99.90
30694;DHT22;17446;48.022;-1.740;2023-02-01T03:30:40;10.30;99.90
30694;DHT22;17446;48.022;-1.740;2023-02-01T03:33:18;10.30;99.90
30694;DHT22;17446;48.022;-1.740;2023-02-01T03:41:24;10.20;99.90
30694;DHT22;17446;48.022;-1.740;2023-02-01T03:43:57;10.20;99.90
30694;DHT22;17446;48.022;-1.740;2023-02-01T03:46:44;10.30;99.90
30694;DHT22;17446;48.022;-1.740;2023-02-01T03:49:14;10.30;99.90
30694;DHT22;17446;48.022;-1.740;2023-02-01T03:51:42;10.30;99.90
30694;DHT22;17446;48.022;-1.740;2023-02-01T03:54:12;10.30;99.90
30694;DHT22;17446;48.022;-1.740;2023-02-01T03:56:41;10.30;99.90
30694;DHT22;17446;48.022;-1.740;2023-02-01T03:59:10;10.20;99.90
30694;DHT22;17446;48.022;-1.740;2023-02-01T04:01:35;10.20;99.90
30694;DHT22;17446;48.022;-1.740;2023-02-01T04:04:01;10.30;99.90
30694;DHT22;17446;48.022;-1.740;2023-02-01T04:06:27;10.30;99.90
30694;DHT22;17446;48.022;-1.740;2023-02-01T04:08:52;10.30;99.90
30694;DHT22;17446;48.022;-1.740;2023-02-01T04:11:18;10.20;99.90
30694;DHT22;17446;48.022;-1.740;2023-02-01T04:13:44;10.20;99.90
30694;DHT22;17446;48.022;-1.740;2023-02-01T04:16:10;10.20;99.90
30694;DHT22;17446;48.022;-1.740;2023-02-01T04:18:36;10.20;99.90
30694;DHT22;17446;48.022;-1.740;2023-02-01T04:21:02;10.20;99.90
30694;DHT22;17446;48.022;-1.740;2023-02-01T04:23:28;10.20;99.90
30694;DHT22;17446;48.022;-1.740;2023-02-01T04:25:58;10.20;99.90
30694;DHT22;17446;48.022;-1.740;2023-02-01T04:28:24;10.30;99.90
30694;DHT22;17446;48.022;-1.740;2023-02-01T04:30:49;10.30;99.90
30694;DHT22;17446;48.022;-1.740;2023-02-01T04:33:15;10.30;99.90
30694;DHT22;17446;48.022;-1.740;2023-02-01T04:35:41;10.20;99.90
30694;DHT22;17446;48.022;-1.740;2023-02-01T04:38:06;10.20;99.90
30694;DHT22;17446;48.022;-1.740;2023-02-01T04:40:32;10.20;99.90
30694;DHT22;17446;48.022;-1.740;2023-02-01T04:43:00;10.20;99.90
30694;DHT22;17446;48.022;-1.740;2023-02-01T04:45:25;10.20;99.90
30694;DHT22;17446;48.022;-1.740;2023-02-01T04:47:51;10.10;99.90
30694;DHT22;17446;48.022;-1.740;2023-02-01T04:50:17;10.10;99.90
30694;DHT22;17446;48.022;-1.740;2023-02-01T04:52:43;10.10;99.90
30694;DHT22;17446;48.022;-1.740;2023-02-01T04:55:10;10.20;99.90
30694;DHT22;17446;48.022;-1.740;2023-02-01T04:57:36;10.20;99.90
30694;DHT22;17446;48.022;-1.740;2023-02-01T05:00:04;10.10;99.90
30694;DHT22;17446;48.022;-1.740;2023-02-01T05:02:30;10.10;99.90
30694;DHT22;17446;48.022;-1.740;2023-02-01T05:04:57;10.10;99.90
30694;DHT22;17446;48.022;-1.740;2023-02-01T05:07:23;10.10;99.90
30694;DHT22;17446;48.022;-1.740;2023-02-01T05:09:49;10.10;99.90
30694;DHT22;17446;48.022;-1.740;2023-02-01T05:12:14;10.10;99.90
30694;DHT22;17446;48.022;-1.740;2023-02-01T05:14:58;10.10;99.90
30694;DHT22;17446;48.022;-1.740;2023-02-01T05:17:24;10.10;99.90
30694;DHT22;17446;48.022;-1.740;2023-02-01T05:19:50;10.20;99.90
30694;DHT22;17446;48.022;-1.740;2023-02-01T05:22:15;10.20;99.90
30694;DHT22;17446;48.022;-1.740;2023-02-01T05:24:41;10.20;99.90
30694;DHT22;17446;48.022;-1.740;2023-02-01T05:27:07;10.20;99.90
30694;DHT22;17446;48.022;-1.740;2023-02-01T05:29:32;10.30;99.90
30694;DHT22;17446;48.022;-1.740;2023-02-01T05:31:58;10.30;99.90
30694;DHT22;17446;48.022;-1.740;2023-02-01T05:34:23;10.30;99.90
30694;DHT22;17446;48.022;-1.740;2023-02-01T05:36:49;10.20;99.90
30694;DHT22;17446;48.022;-1.740;2023-02-01T05:39:15;10.20;99.90
30694;DHT22;17446;48.022;-1.740;2023-02-01T05:41:40;10.20;99.90
30694;DHT22;17446;48.022;-1.740;2023-02-01T05:44:06;10.20;99.90
30694;DHT22;17446;48.022;-1.740;2023-02-01T05:46:35;10.20;99.90
30694;DHT22;17446;48.022;-1.740;2023-02-01T05:49:01;10.20;99.90
30694;DHT22;17446;48.022;-1.740;2023-02-01T05:51:26;10.20;99.90
30694;DHT22;17446;48.022;-1.740;2023-02-01T05:53:52;10.30;99.90
30694;DHT22;17446;48.022;-1.740;2023-02-01T05:56:17;10.30;99.90
30694;DHT22;17446;48.022;-1.740;2023-02-01T05:58:43;10.30;99.90
30694;DHT22;17446;48.022;-1.740;2023-02-01T06:01:09;10.30;99.90
30694;DHT22;17446;48.022;-1.740;2023-02-01T06:03:34;10.20;99.90
30694;DHT22;17446;48.022;-1.740;2023-02-01T06:06:00;10.20;99.90
30694;DHT22;17446;48.022;-1.740;2023-02-01T06:08:26;10.20;99.90
30694;DHT22;17446;48.022;-1.740;2023-02-01T06:11:04;10.20;99.90
30694;DHT22;17446;48.022;-1.740;2023-02-01T06:13:30;10.20;99.90
30694;DHT22;17446;48.022;-1.740;2023-02-01T06:15:56;10.20;99.90
30694;DHT22;17446;48.022;-1.740;2023-02-01T06:18:23;10.20;99.90
30694;DHT22;17446;48.022;-1.740;2023-02-01T06:20:55;10.20;99.90
30694;DHT22;17446;48.022;-1.740;2023-02-01T06:23:21;10.20;99.90
30694;DHT22;17446;48.022;-1.740;2023-02-01T06:25:50;10.20;99.90
30694;DHT22;17446;48.022;-1.740;2023-02-01T06:28:16;10.20;99.90
30694;DHT22;17446;48.022;-1.740;2023-02-01T06:30:41;10.20;99.90
30694;DHT22;17446;48.022;-1.740;2023-02-01T06:33:14;10.20;99.90
30694;DHT22;17446;48.022;-1.740;2023-02-01T06:35:42;10.20;99.90
30694;DHT22;17446;48.022;-1.740;2023-02-01T06:38:12;10.30;99.90
30694;DHT22;17446;48.022;-1.740;2023-02-01T06:40:38;10.20;99.90
30694;DHT22;17446;48.022;-1.740;2023-02-01T06:43:04;10.20;99.90
30694;DHT22;17446;48.022;-1.740;2023-02-01T06:45:30;10.20;99.90
30694;DHT22;17446;48.022;-1.740;2023-02-01T06:47:56;10.30;99.90
30694;DHT22;17446;48.022;-1.740;2023-02-01T06:50:21;10.20;99.90
30694;DHT22;17446;48.022;-1.740;2023-02-01T06:52:47;10.30;99.90
30694;DHT22;17446;48.022;-1.740;2023-02-01T06:55:12;10.30;99.90
30694;DHT22;17446;48.022;-1.740;2023-02-01T06:57:38;10.30;99.90
30694;DHT22;17446;48.022;-1.740;2023-02-01T07:00:05;10.20;99.90
30694;DHT22;17446;48.022;-1.740;2023-02-01T07:02:30;10.20;99.90
30694;DHT22;17446;48.022;-1.740;2023-02-01T07:04:56;10.20;99.90
30694;DHT22;17446;48.022;-1.740;2023-02-01T07:07:22;10.20;99.90
30694;DHT22;17446;48.022;-1.740;2023-02-01T07:09:49;10.20;99.90
30694;DHT22;17446;48.022;-1.740;2023-02-01T07:12:15;10.20;99.90
30694;DHT22;17446;48.022;-1.740;2023-02-01T07:14:40;10.20;99.90
30694;DHT22;17446;48.022;-1.740;2023-02-01T07:17:06;10.30;99.90
30694;DHT22;17446;48.022;-1.740;2023-02-01T07:19:32;10.20;99.90
30694;DHT22;17446;48.022;-1.740;2023-02-01T07:21:58;10.20;99.90
30694;DHT22;17446;48.022;-1.740;2023-02-01T07:24:23;10.20;99.90
30694;DHT22;17446;48.022;-1.740;2023-02-01T07:26:49;10.20;99.90
30694;DHT22;17446;48.022;-1.740;2023-02-01T07:29:17;10.20;99.90
30694;DHT22;17446;48.022;-1.740;2023-02-01T07:31:42;10.20;99.90
30694;DHT22;17446;48.022;-1.740;2023-02-01T07:34:08;10.10;99.90
30694;DHT22;17446;48.022;-1.740;2023-02-01T07:36:34;10.10;99.90
30694;DHT22;17446;48.022;-1.740;2023-02-01T07:39:02;10.10;99.90
30694;DHT22;17446;48.022;-1.740;2023-02-01T07:41:28;10.10;99.90
30694;DHT22;17446;48.022;-1.740;2023-02-01T07:43:54;10.10;99.90
30694;DHT22;17446;48.022;-1.740;2023-02-01T07:46:20;10.00;99.90
30694;DHT22;17446;48.022;-1.740;2023-02-01T07:48:45;10.00;99.90
30694;DHT22;17446;48.022;-1.740;2023-02-01T07:51:13;10.00;99.90
30694;DHT22;17446;48.022;-1.740;2023-02-01T07:53:40;10.00;99.90
30694;DHT22;17446;48.022;-1.740;2023-02-01T07:56:18;10.00;99.90
30694;DHT22;17446;48.022;-1.740;2023-02-01T07:58:50;9.90;99.90
30694;DHT22;17446;48.022;-1.740;2023-02-01T08:01:17;9.90;99.90
30694;DHT22;17446;48.022;-1.740;2023-02-01T08:03:47;9.90;99.90
30694;DHT22;17446;48.022;-1.740;2023-02-01T08:06:13;9.80;99.90
30694;DHT22;17446;48.022;-1.740;2023-02-01T08:08:39;9.80;99.90
30694;DHT22;17446;48.022;-1.740;2023-02-01T08:11:06;9.80;99.90
30694;DHT22;17446;48.022;-1.740;2023-02-01T08:13:33;9.80;99.90
30694;DHT22;17446;48.022;-1.740;2023-02-01T08:16:00;9.80;99.90
30694;DHT22;17446;48.022;-1.740;2023-02-01T08:18:27;9.80;99.90
30694;DHT22;17446;48.022;-1.740;2023-02-01T08:20:52;9.90;99.90
30694;DHT22;17446;48.022;-1.740;2023-02-01T08:23:19;9.90;99.90
30694;DHT22;17446;48.022;-1.740;2023-02-01T08:25:44;9.90;99.90
30694;DHT22;17446;48.022;-1.740;2023-02-01T08:28:10;10.00;99.90
30694;DHT22;17446;48.022;-1.740;2023-02-01T08:30:37;10.00;99.90
30694;DHT22;17446;48.022;-1.740;2023-02-01T08:33:04;10.10;99.90
30694;DHT22;17446;48.022;-1.740;2023-02-01T08:35:31;10.10;99.90
30694;DHT22;17446;48.022;-1.740;2023-02-01T08:37:57;10.20;99.90
30694;DHT22;17446;48.022;-1.740;2023-02-01T08:40:22;10.20;99.90
30694;DHT22;17446;48.022;-1.740;2023-02-01T08:42:48;10.30;99.90
30694;DHT22;17446;48.022;-1.740;2023-02-01T08:45:34;10.30;99.90
30694;DHT22;17446;48.022;-1.740;2023-02-01T08:48:00;10.30;99.90
30694;DHT22;17446;48.022;-1.740;2023-02-01T08:50:26;10.40;99.90
30694;DHT22;17446;48.022;-1.740;2023-02-01T08:52:52;10.40;99.90
30694;DHT22;17446;48.022;-1.740;2023-02-01T08:55:18;10.50;99.90
30694;DHT22;17446;48.022;-1.740;2023-02-01T08:57:44;10.50;99.90
30694;DHT22;17446;48.022;-1.740;2023-02-01T09:02:41;10.60;99.90
30694;DHT22;17446;48.022;-1.740;2023-02-01T09:05:07;10.70;99.90
30694;DHT22;17446;48.022;-1.740;2023-02-01T09:07:34;10.70;99.90
30694;DHT22;17446;48.022;-1.740;2023-02-01T09:09:59;10.80;99.90
30694;DHT22;17446;48.022;-1.740;2023-02-01T09:12:28;10.80;99.90
30694;DHT22;17446;48.022;-1.740;2023-02-01T09:14:57;10.80;99.90
30694;DHT22;17446;48.022;-1.740;2023-02-01T09:17:25;10.90;99.90
30694;DHT22;17446;48.022;-1.740;2023-02-01T09:19:51;10.90;99.90
30694;DHT22;17446;48.022;-1.740;2023-02-01T09:22:17;11.00;99.90
30694;DHT22;17446;48.022;-1.740;2023-02-01T09:24:42;11.00;99.90
30694;DHT22;17446;48.022;-1.740;2023-02-01T09:27:08;11.10;99.90
30694;DHT22;17446;48.022;-1.740;2023-02-01T09:29:34;11.20;99.90
30694;DHT22;17446;48.022;-1.740;2023-02-01T09:31:59;11.20;99.90
30694;DHT22;17446;48.022;-1.740;2023-02-01T09:34:25;11.30;99.90
30694;DHT22;17446;48.022;-1.740;2023-02-01T09:36:51;11.40;99.90
30694;DHT22;17446;48.022;-1.740;2023-02-01T09:39:16;11.40;99.90
30694;DHT22;17446;48.022;-1.740;2023-02-01T09:44:52;11.60;99.90
30694;DHT22;17446;48.022;-1.740;2023-02-01T09:47:23;11.60;99.90
30694;DHT22;17446;48.022;-1.740;2023-02-01T09:50:00;11.60;99.90
30694;DHT22;17446;48.022;-1.740;2023-02-01T09:52:38;11.60;99.90
30694;DHT22;17446;48.022;-1.740;2023-02-01T09:55:19;11.70;99.90
30694;DHT22;17446;48.022;-1.740;2023-02-01T09:58:05;11.80;99.90
30694;DHT22;17446;48.022;-1.740;2023-02-01T10:00:38;11.80;99.90
30694;DHT22;17446;48.022;-1.740;2023-02-01T10:03:04;11.90;99.90
30694;DHT22;17446;48.022;-1.740;2023-02-01T10:05:52;11.90;99.90
30694;DHT22;17446;48.022;-1.740;2023-02-01T10:27:41;12.20;99.90
30694;DHT22;17446;48.022;-1.740;2023-02-01T10:32:43;12.40;99.90
30694;DHT22;17446;48.022;-1.740;2023-02-01T10:35:16;12.40;99.90
30694;DHT22;17446;48.022;-1.740;2023-02-01T10:37:43;12.40;99.90
30694;DHT22;17446;48.022;-1.740;2023-02-01T10:40:26;12.50;99.90
30694;DHT22;17446;48.022;-1.740;2023-02-01T10:42:56;12.60;99.90
30694;DHT22;17446;48.022;-1.740;2023-02-01T10:45:26;12.60;99.90
30694;DHT22;17446;48.022;-1.740;2023-02-01T10:47:53;12.70;99.90
30694;DHT22;17446;48.022;-1.740;2023-02-01T10:50:39;12.80;99.90
30694;DHT22;17446;48.022;-1.740;2023-02-01T10:53:10;12.80;99.90
30694;DHT22;17446;48.022;-1.740;2023-02-01T10:55:46;12.80;99.90
30694;DHT22;17446;48.022;-1.740;2023-02-01T10:58:19;12.90;99.90
30694;DHT22;17446;48.022;-1.740;2023-02-01T11:00:49;12.90;99.90
30694;DHT22;17446;48.022;-1.740;2023-02-01T11:03:34;12.90;99.90
30694;DHT22;17446;48.022;-1.740;2023-02-01T11:06:09;12.90;99.90
30694;DHT22;17446;48.022;-1.740;2023-02-01T11:08:45;12.90;99.90
30694;DHT22;17446;48.022;-1.740;2023-02-01T11:11:12;12.80;99.90
30694;DHT22;17446;48.022;-1.740;2023-02-01T11:13:39;12.80;99.90
30694;DHT22;17446;48.022;-1.740;2023-02-01T11:16:05;12.80;99.90
30694;DHT22;17446;48.022;-1.740;2023-02-01T11:18:35;12.70;99.90
30694;DHT22;17446;48.022;-1.740;2023-02-01T11:21:02;12.70;99.90
30694;DHT22;17446;48.022;-1.740;2023-02-01T11:23:30;12.80;99.90
30694;DHT22;17446;48.022;-1.740;2023-02-01T11:25:59;12.80;99.90
30694;DHT22;17446;48.022;-1.740;2023-02-01T11:28:31;12.80;99.90
30694;DHT22;17446;48.022;-1.740;2023-02-01T11:31:01;12.80;99.90
30694;DHT22;17446;48.022;-1.740;2023-02-01T11:33:31;12.80;99.90
30694;DHT22;17446;48.022;-1.740;2023-02-01T11:36:11;12.80;99.90
30694;DHT22;17446;48.022;-1.740;2023-02-01T11:38:51;12.80;99.90
30694;DHT22;17446;48.022;-1.740;2023-02-01T11:41:26;12.90;99.90
30694;DHT22;17446;48.022;-1.740;2023-02-01T11:46:23;12.90;99.90
30694;DHT22;17446;48.022;-1.740;2023-02-01T11:48:53;13.00;99.90
30694;DHT22;17446;48.022;-1.740;2023-02-01T11:54:01;13.20;99.90
30694;DHT22;17446;48.022;-1.740;2023-02-01T11:56:36;13.30;99.90
30694;DHT22;17446;48.022;-1.740;2023-02-01T11:59:25;13.30;99.90
30694;DHT22;17446;48.022;-1.740;2023-02-01T12:02:10;13.40;99.90
30694;DHT22;17446;48.022;-1.740;2023-02-01T12:05:04;13.40;99.90
30694;DHT22;17446;48.022;-1.740;2023-02-01T12:10:28;13.40;99.90
30694;DHT22;17446;48.022;-1.740;2023-02-01T12:15:41;13.30;99.90
30694;DHT22;17446;48.022;-1.740;2023-02-01T12:31:55;13.50;99.90
30694;DHT22;17446;48.022;-1.740;2023-02-01T12:43:31;13.80;99.90
30694;DHT22;17446;48.022;-1.740;2023-02-01T12:46:15;13.70;99.90
30694;DHT22;17446;48.022;-1.740;2023-02-01T12:49:06;13.70;99.90
30694;DHT22;17446;48.022;-1.740;2023-02-01T12:51:39;13.60;99.90
30694;DHT22;17446;48.022;-1.740;2023-02-01T12:57:04;13.60;99.90
30694;DHT22;17446;48.022;-1.740;2023-02-01T13:02:42;13.60;99.90
30694;DHT22;17446;48.022;-1.740;2023-02-01T13:05:28;13.50;99.90
30694;DHT22;17446;48.022;-1.740;2023-02-01T13:07:59;13.50;99.90
30694;DHT22;17446;48.022;-1.740;2023-02-01T13:10:42;13.50;99.90
30694;DHT22;17446;48.022;-1.740;2023-02-01T13:15:47;13.50;99.90
30694;DHT22;17446;48.022;-1.740;2023-02-01T13:18:20;13.60;99.90
30694;DHT22;17446;48.022;-1.740;2023-02-01T13:23:50;13.60;99.90
30694;DHT22;17446;48.022;-1.740;2023-02-01T13:26:16;13.60;99.90
30694;DHT22;17446;48.022;-1.740;2023-02-01T13:28:59;13.60;99.90
30694;DHT22;17446;48.022;-1.740;2023-02-01T13:31:57;13.60;99.90
30694;DHT22;17446;48.022;-1.740;2023-02-01T13:40:09;13.50;99.90
30694;DHT22;17446;48.022;-1.740;2023-02-01T13:45:31;13.40;99.90
30694;DHT22;17446;48.022;-1.740;2023-02-01T13:48:01;13.40;99.90
30694;DHT22;17446;48.022;-1.740;2023-02-01T13:50:38;13.30;99.90
30694;DHT22;17446;48.022;-1.740;2023-02-01T13:55:56;13.20;99.90
30694;DHT22;17446;48.022;-1.740;2023-02-01T13:58:37;13.20;99.90
30694;DHT22;17446;48.022;-1.740;2023-02-01T14:11:46;12.80;99.90
30694;DHT22;17446;48.022;-1.740;2023-02-01T14:16:41;12.70;99.90
30694;DHT22;17446;48.022;-1.740;2023-02-01T14:19:24;12.60;99.90
30694;DHT22;17446;48.022;-1.740;2023-02-01T14:21:55;12.60;99.90
30694;DHT22;17446;48.022;-1.740;2023-02-01T14:24:33;12.50;99.90
30694;DHT22;17446;48.022;-1.740;2023-02-01T14:27:01;12.50;99.90
30694;DHT22;17446;48.022;-1.740;2023-02-01T14:29:36;12.50;99.90
30694;DHT22;17446;48.022;-1.740;2023-02-01T14:32:20;12.50;99.90
30694;DHT22;17446;48.022;-1.740;2023-02-01T14:40:03;12.60;99.90
30694;DHT22;17446;48.022;-1.740;2023-02-01T14:42:45;12.70;99.90
30694;DHT22;17446;48.022;-1.740;2023-02-01T14:50:49;12.80;99.90
30694;DHT22;17446;48.022;-1.740;2023-02-01T14:53:32;12.80;99.90
30694;DHT22;17446;48.022;-1.740;2023-02-01T14:56:06;12.90;99.90
30694;DHT22;17446;48.022;-1.740;2023-02-01T15:06:29;12.90;99.90
30694;DHT22;17446;48.022;-1.740;2023-02-01T15:11:30;12.80;99.90
30694;DHT22;17446;48.022;-1.740;2023-02-01T15:13:56;12.80;99.90
30694;DHT22;17446;48.022;-1.740;2023-02-01T15:16:24;12.80;99.90
30694;DHT22;17446;48.022;-1.740;2023-02-01T15:18:51;12.80;99.90
30694;DHT22;17446;48.022;-1.740;2023-02-01T15:21:31;12.80;99.90
30694;DHT22;17446;48.022;-1.740;2023-02-01T15:24:13;12.80;99.90
30694;DHT22;17446;48.022;-1.740;2023-02-01T15:26:39;12.70;99.90
30694;DHT22;17446;48.022;-1.740;2023-02-01T15:29:08;12.70;99.90
30694;DHT22;17446;48.022;-1.740;2023-02-01T15:31:43;12.70;99.90
30694;DHT22;17446;48.022;-1.740;2023-02-01T15:34:10;12.70;99.90
30694;DHT22;17446;48.022;-1.740;2023-02-01T15:36:36;12.70;99.90
30694;DHT22;17446;48.022;-1.740;2023-02-01T15:39:21;12.60;99.90
30694;DHT22;17446;48.022;-1.740;2023-02-01T15:42:00;12.60;99.90
30694;DHT22;17446;48.022;-1.740;2023-02-01T15:44:41;12.60;99.90
30694;DHT22;17446;48.022;-1.740;2023-02-01T15:47:15;12.50;99.90
30694;DHT22;17446;48.022;-1.740;2023-02-01T15:49:44;12.50;99.90
30694;DHT22;17446;48.022;-1.740;2023-02-01T15:52:40;12.50;99.90
30694;DHT22;17446;48.022;-1.740;2023-02-01T15:55:30;12.40;99.90
30694;DHT22;17446;48.022;-1.740;2023-02-01T15:57:58;12.40;99.90
30694;DHT22;17446;48.022;-1.740;2023-02-01T16:00:31;12.40;99.90
30694;DHT22;17446;48.022;-1.740;2023-02-01T16:03:05;12.40;99.90
30694;DHT22;17446;48.022;-1.740;2023-02-01T16:05:38;12.30;99.90
30694;DHT22;17446;48.022;-1.740;2023-02-01T16:08:14;12.40;99.90
30694;DHT22;17446;48.022;-1.740;2023-02-01T16:10:42;12.30;99.90
30694;DHT22;17446;48.022;-1.740;2023-02-01T16:13:09;12.30;99.90
30694;DHT22;17446;48.022;-1.740;2023-02-01T16:15:35;12.30;99.90
30694;DHT22;17446;48.022;-1.740;2023-02-01T16:18:01;12.30;99.90
30694;DHT22;17446;48.022;-1.740;2023-02-01T16:20:27;12.30;99.90
30694;DHT22;17446;48.022;-1.740;2023-02-01T16:22:52;12.20;99.90
30694;DHT22;17446;48.022;-1.740;2023-02-01T16:25:18;12.20;99.90
30694;DHT22;17446;48.022;-1.740;2023-02-01T16:27:43;12.20;99.90
30694;DHT22;17446;48.022;-1.740;2023-02-01T16:30:09;12.20;99.90
30694;DHT22;17446;48.022;-1.740;2023-02-01T16:32:37;12.10;99.90
30694;DHT22;17446;48.022;-1.740;2023-02-01T16:35:05;12.10;99.90
30694;DHT22;17446;48.022;-1.740;2023-02-01T16:37:31;12.00;99.90
30694;DHT22;17446;48.022;-1.740;2023-02-01T16:39:59;12.00;99.90
30694;DHT22;17446;48.022;-1.740;2023-02-01T16:42:24;12.00;99.90
30694;DHT22;17446;48.022;-1.740;2023-02-01T16:44:50;12.00;99.90
30694;DHT22;17446;48.022;-1.740;2023-02-01T16:47:20;12.00;99.90
30694;DHT22;17446;48.022;-1.740;2023-02-01T16:49:46;12.00;99.90
30694;DHT22;17446;48.022;-1.740;2023-02-01T16:52:16;12.00;99.90
30694;DHT22;17446;48.022;-1.740;2023-02-01T16:54:42;12.00;99.90
30694;DHT22;17446;48.022;-1.740;2023-02-01T16:57:13;12.00;99.90
30694;DHT22;17446;48.022;-1.740;2023-02-01T16:59:39;11.90;99.90
30694;DHT22;17446;48.022;-1.740;2023-02-01T17:02:08;11.90;99.90
30694;DHT22;17446;48.022;-1.740;2023-02-01T17:04:35;11.90;99.90
30694;DHT22;17446;48.022;-1.740;2023-02-01T17:07:01;11.90;99.90
30694;DHT22;17446;48.022;-1.740;2023-02-01T17:09:36;11.90;99.90
30694;DHT22;17446;48.022;-1.740;2023-02-01T17:12:03;11.80;99.90
30694;DHT22;17446;48.022;-1.740;2023-02-01T17:14:32;11.80;99.90
30694;DHT22;17446;48.022;-1.740;2023-02-01T17:17:00;11.80;99.90
30694;DHT22;17446;48.022;-1.740;2023-02-01T17:19:26;11.80;99.90
30694;DHT22;17446;48.022;-1.740;2023-02-01T17:21:53;11.80;99.90
30694;DHT22;17446;48.022;-1.740;2023-02-01T17:24:24;11.70;99.90
30694;DHT22;17446;48.022;-1.740;2023-02-01T17:26:50;11.70;99.90
30694;DHT22;17446;48.022;-1.740;2023-02-01T17:29:17;11.70;99.90
30694;DHT22;17446;48.022;-1.740;2023-02-01T17:31:48;11.70;99.90
30694;DHT22;17446;48.022;-1.740;2023-02-01T17:34:15;11.70;99.90
30694;DHT22;17446;48.022;-1.740;2023-02-01T17:36:42;11.70;99.90
30694;DHT22;17446;48.022;-1.740;2023-02-01T17:39:09;11.70;99.90
30694;DHT22;17446;48.022;-1.740;2023-02-01T17:41:36;11.70;99.90
30694;DHT22;17446;48.022;-1.740;2023-02-01T17:44:02;11.60;99.90
30694;DHT22;17446;48.022;-1.740;2023-02-01T17:46:30;11.60;99.90
30694;DHT22;17446;48.022;-1.740;2023-02-01T17:48:55;11.60;99.90
30694;DHT22;17446;48.022;-1.740;2023-02-01T17:51:26;11.60;99.90
30694;DHT22;17446;48.022;-1.740;2023-02-01T17:53:52;11.90;99.90
30694;DHT22;17446;48.022;-1.740;2023-02-01T17:56:23;12.20;99.90
30694;DHT22;17446;48.022;-1.740;2023-02-01T17:58:49;12.30;99.90
30694;DHT22;17446;48.022;-1.740;2023-02-01T18:01:22;12.20;99.90
30694;DHT22;17446;48.022;-1.740;2023-02-01T18:03:48;12.10;99.90
30694;DHT22;17446;48.022;-1.740;2023-02-01T18:06:25;12.00;99.90